createdAt,value
2022-10-30T00:01:10.654Z,6.53
2022-10-30T00:03:37.420Z,6.18
2022-10-30T00:06:08.909Z,5.35
2022-10-30T00:08:35.981Z,6.00
2022-10-30T00:11:11.040Z,6.25
2022-10-30T00:13:38.818Z,6.70
2022-10-30T00:16:07.293Z,6.13
2022-10-30T00:18:39.443Z,6.30
2022-10-30T00:21:11.937Z,6.18
2022-10-30T00:23:39.003Z,6.50
2022-10-30T00:26:07.248Z,6.57
2022-10-30T00:28:34.409Z,6.13
2022-10-30T00:31:02.520Z,6.47
2022-10-30T00:33:29.759Z,6.35
2022-10-30T00:35:58.094Z,6.40
2022-10-30T00:38:24.928Z,6.38
2022-10-30T00:40:51.757Z,5.80
2022-10-30T00:43:29.176Z,7.68
2022-10-30T00:46:00.595Z,6.78
2022-10-30T00:48:28.014Z,6.95
2022-10-30T00:50:57.448Z,6.65
2022-10-30T00:53:24.397Z,6.45
2022-10-30T00:55:56.012Z,6.72
2022-10-30T01:00:56.489Z,6.28
2022-10-30T01:03:25.948Z,6.78
2022-10-30T01:05:58.628Z,6.45
2022-10-30T01:08:25.754Z,6.72
2022-10-30T01:10:52.923Z,6.95
2022-10-30T01:13:22.983Z,7.07
2022-10-30T01:16:09.012Z,6.63
2022-10-30T01:18:52.777Z,7.13
2022-10-30T01:21:25.384Z,6.72
2022-10-30T01:24:07.593Z,5.88
2022-10-30T01:26:56.416Z,6.40
2022-10-30T01:30:04.944Z,6.43
2022-10-30T01:33:04.069Z,6.93
2022-10-30T01:35:52.543Z,6.78
2022-10-30T01:38:26.188Z,6.43
2022-10-30T01:40:53.966Z,6.35
2022-10-30T01:43:21.091Z,6.47
2022-10-30T01:45:58.444Z,6.63
2022-10-30T01:48:44.646Z,6.68
2022-10-30T01:51:26.523Z,6.57
2022-10-30T01:54:04.570Z,7.43
2022-10-30T01:56:53.116Z,6.40
2022-10-30T01:59:31.703Z,6.72
2022-10-30T02:01:59.109Z,7.47
2022-10-30T02:04:26.550Z,6.57
2022-10-30T02:06:53.835Z,7.57
2022-10-30T02:09:20.945Z,6.25
2022-10-30T02:11:52.149Z,6.88
2022-10-30T02:14:24.593Z,7.30
2022-10-30T02:16:54.997Z,7.05
2022-10-30T02:19:21.948Z,7.60
2022-10-30T02:21:49.830Z,7.40
2022-10-30T02:24:17.012Z,7.20
2022-10-30T02:26:43.965Z,7.40
2022-10-30T02:29:10.770Z,7.05
2022-10-30T02:31:38.050Z,7.60
2022-10-30T02:34:05.274Z,6.93
2022-10-30T02:36:32.496Z,6.88
2022-10-30T02:39:00.044Z,7.60
2022-10-30T02:41:27.033Z,7.32
2022-10-30T02:43:53.993Z,7.10
2022-10-30T02:46:21.283Z,6.75
2022-10-30T02:48:49.177Z,7.60
2022-10-30T02:51:16.210Z,7.30
2022-10-30T02:53:43.240Z,8.40
2022-10-30T02:56:13.350Z,6.80
2022-10-30T02:58:42.132Z,6.63
2022-10-30T03:01:18.701Z,6.85
2022-10-30T03:03:46.771Z,6.82
2022-10-30T03:06:16.189Z,7.20
2022-10-30T03:08:43.760Z,7.97
2022-10-30T03:11:15.616Z,6.88
2022-10-30T03:13:44.435Z,6.35
2022-10-30T03:16:16.935Z,6.57
2022-10-30T03:18:44.385Z,6.38
2022-10-30T03:21:14.709Z,6.75
2022-10-30T03:23:41.486Z,6.63
2022-10-30T03:26:08.830Z,6.72
2022-10-30T03:28:48.422Z,6.53
2022-10-30T03:31:18.459Z,6.78
2022-10-30T03:33:46.985Z,7.07
2022-10-30T03:36:14.843Z,7.32
2022-10-30T03:38:42.247Z,7.15
2022-10-30T03:41:11.211Z,6.13
2022-10-30T03:43:38.062Z,7.18
2022-10-30T03:46:05.089Z,6.68
2022-10-30T03:48:32.745Z,7.00
2022-10-30T03:51:00.305Z,6.60
2022-10-30T03:53:28.748Z,6.10
2022-10-30T03:56:00.794Z,6.55
2022-10-30T03:58:36.365Z,6.97
2022-10-30T04:01:07.190Z,7.13
2022-10-30T04:03:38.436Z,6.50
2022-10-30T04:06:07.781Z,7.38
2022-10-30T04:08:34.515Z,6.68
2022-10-30T04:11:02.793Z,6.55
2022-10-30T04:13:29.763Z,6.53
2022-10-30T04:15:58.304Z,6.35
2022-10-30T04:18:26.616Z,6.25
2022-10-30T04:20:54.526Z,6.18
2022-10-30T04:23:22.095Z,6.47
2022-10-30T04:25:49.126Z,7.22
2022-10-30T04:28:16.546Z,6.93
2022-10-30T04:30:43.981Z,6.38
2022-10-30T04:33:12.683Z,6.40
2022-10-30T04:35:41.407Z,6.70
2022-10-30T04:38:14.381Z,5.90
2022-10-30T04:40:44.151Z,6.00
2022-10-30T04:43:13.489Z,5.65
2022-10-30T04:45:41.631Z,6.72
2022-10-30T04:48:14.411Z,5.70
2022-10-30T04:50:43.300Z,5.78
2022-10-30T04:53:14.218Z,5.90
2022-10-30T04:55:42.013Z,6.15
2022-10-30T04:58:11.441Z,6.47
2022-10-30T05:00:40.110Z,5.03
2022-10-30T05:03:19.242Z,5.10
2022-10-30T05:05:47.639Z,5.45
2022-10-30T05:08:14.567Z,5.70
2022-10-30T05:10:41.483Z,6.15
2022-10-30T05:13:12.264Z,6.18
2022-10-30T05:15:39.039Z,6.18
2022-10-30T05:18:06.010Z,7.50
2022-10-30T05:20:33.057Z,6.47
2022-10-30T05:23:00.164Z,6.13
2022-10-30T05:25:28.153Z,6.38
2022-10-30T05:28:01.765Z,6.30
2022-10-30T05:33:03.143Z,6.70
2022-10-30T05:35:32.626Z,6.97
2022-10-30T05:38:05.602Z,7.60
2022-10-30T05:40:34.010Z,6.25
2022-10-30T05:43:01.816Z,6.70
2022-10-30T05:45:29.703Z,6.65
2022-10-30T05:48:03.984Z,5.63
2022-10-30T05:50:35.302Z,6.22
2022-10-30T05:53:23.062Z,6.60
2022-10-30T05:55:50.505Z,6.30
2022-10-30T05:58:20.927Z,7.07
2022-10-30T06:00:48.688Z,6.78
2022-10-30T06:03:22.571Z,6.18
2022-10-30T06:05:49.423Z,6.35
2022-10-30T06:08:17.198Z,6.38
2022-10-30T06:10:45.977Z,7.13
2022-10-30T06:13:23.148Z,7.30
2022-10-30T06:16:03.084Z,6.68
2022-10-30T06:18:48.338Z,6.88
2022-10-30T06:21:15.229Z,6.43
2022-10-30T06:24:04.445Z,6.18
2022-10-30T06:26:42.841Z,6.38
2022-10-30T06:29:13.419Z,6.85
2022-10-30T06:31:41.047Z,6.25
2022-10-30T06:34:07.780Z,6.15
2022-10-30T06:36:37.079Z,5.32
2022-10-30T06:39:04.890Z,5.88
2022-10-30T06:41:41.911Z,5.70
2022-10-30T06:44:23.538Z,5.10
2022-10-30T06:46:53.541Z,5.93
2022-10-30T06:49:20.704Z,6.13
2022-10-30T06:51:49.308Z,5.82
2022-10-30T06:54:16.318Z,6.03
2022-10-30T06:57:02.005Z,5.80
2022-10-30T06:59:44.454Z,5.68
2022-10-30T07:02:40.621Z,6.25
2022-10-30T07:05:09.928Z,6.85
2022-10-30T07:07:36.835Z,5.20
2022-10-30T07:10:03.763Z,5.75
2022-10-30T07:12:57.449Z,7.05
2022-10-30T07:15:46.159Z,7.10
2022-10-30T07:18:35.913Z,7.07
2022-10-30T07:21:02.818Z,6.15
2022-10-30T07:23:31.397Z,6.57
2022-10-30T07:26:08.808Z,7.40
2022-10-30T07:28:37.894Z,6.82
2022-10-30T07:31:34.798Z,7.32
2022-10-30T07:34:08.390Z,6.53
2022-10-30T07:36:53.654Z,7.15
2022-10-30T07:39:34.840Z,6.93
2022-10-30T07:42:17.635Z,6.80
2022-10-30T07:45:04.781Z,7.05
2022-10-30T07:47:44.323Z,6.35
2022-10-30T07:50:17.811Z,6.30
2022-10-30T07:52:44.799Z,5.47
2022-10-30T07:55:12.215Z,5.80
2022-10-30T07:57:43.407Z,6.72
2022-10-30T08:00:28.473Z,6.05
2022-10-30T08:03:06.368Z,6.68
2022-10-30T08:05:37.884Z,5.15
2022-10-30T08:08:08.802Z,6.68
2022-10-30T08:10:36.701Z,5.00
2022-10-30T08:13:03.624Z,5.18
2022-10-30T08:15:31.251Z,5.40
2022-10-30T08:17:58.329Z,5.38
2022-10-30T08:20:25.724Z,5.57
2022-10-30T08:22:54.737Z,4.68
2022-10-30T08:25:27.334Z,5.35
2022-10-30T08:28:00.163Z,4.80
2022-10-30T08:30:34.582Z,5.00
2022-10-30T08:33:05.733Z,4.80
2022-10-30T08:35:56.483Z,4.88
2022-10-30T08:38:23.669Z,5.18
2022-10-30T08:41:03.107Z,4.28
2022-10-30T08:43:32.074Z,4.20
2022-10-30T08:46:01.623Z,4.28
2022-10-30T08:48:28.653Z,3.75
2022-10-30T08:50:59.646Z,3.88
2022-10-30T08:53:31.046Z,3.40
2022-10-30T08:55:58.573Z,2.90
2022-10-30T08:58:31.888Z,3.50
2022-10-30T09:01:01.530Z,3.33
2022-10-30T09:03:57.562Z,2.92
2022-10-30T09:06:49.977Z,3.80
2022-10-30T09:09:37.250Z,3.88
2022-10-30T09:12:05.256Z,3.47
2022-10-30T09:14:38.655Z,3.28
2022-10-30T09:17:06.025Z,4.15
2022-10-30T09:19:35.647Z,3.40
2022-10-30T09:22:02.630Z,3.42
2022-10-30T09:24:30.983Z,3.75
2022-10-30T09:27:39.862Z,3.85
2022-10-30T09:30:09.006Z,3.72
2022-10-30T09:32:41.794Z,4.07
2022-10-30T09:35:10.965Z,3.78
2022-10-30T09:37:40.190Z,3.70
2022-10-30T09:40:24.369Z,4.07
2022-10-30T09:42:52.718Z,3.80
2022-10-30T09:45:48.811Z,3.60
2022-10-30T09:48:25.641Z,5.40
2022-10-30T09:51:31.721Z,4.05
2022-10-30T09:54:10.904Z,3.33
2022-10-30T09:57:01.217Z,4.13
2022-10-30T09:59:59.143Z,3.70
2022-10-30T10:02:56.659Z,4.00
2022-10-30T10:05:28.576Z,3.35
2022-10-30T10:08:22.220Z,3.90
2022-10-30T10:11:31.178Z,3.30
2022-10-30T10:14:14.722Z,3.00
2022-10-30T10:16:43.428Z,3.13
2022-10-30T10:19:36.040Z,3.00
2022-10-30T10:22:06.851Z,3.42
2022-10-30T10:24:40.030Z,3.53
2022-10-30T10:27:48.324Z,3.05
2022-10-30T10:30:20.418Z,3.25
2022-10-30T10:33:20.431Z,2.72
2022-10-30T10:36:13.447Z,3.10
2022-10-30T10:38:58.631Z,3.10
2022-10-30T10:41:56.114Z,3.70
2022-10-30T10:44:51.768Z,3.67
2022-10-30T10:47:49.036Z,2.55
2022-10-30T10:50:25.688Z,3.42
2022-10-30T10:53:01.413Z,2.55
2022-10-30T10:55:36.986Z,3.25
2022-10-30T10:58:15.969Z,2.92
2022-10-30T11:00:43.716Z,3.28
2022-10-30T11:03:33.885Z,2.28
2022-10-30T11:06:18.107Z,2.45
2022-10-30T11:08:44.928Z,2.92
2022-10-30T11:11:11.663Z,2.65
2022-10-30T11:13:40.568Z,3.28
2022-10-30T11:16:46.291Z,2.30
2022-10-30T11:19:13.068Z,2.90
2022-10-30T11:21:44.379Z,3.42
2022-10-30T11:24:32.503Z,2.10
2022-10-30T11:27:16.569Z,2.75
2022-10-30T11:29:59.487Z,2.45
2022-10-30T11:32:28.650Z,2.50
2022-10-30T11:35:07.400Z,2.78
2022-10-30T11:37:36.800Z,2.70
2022-10-30T11:40:12.719Z,2.67
2022-10-30T11:42:42.733Z,2.30
2022-10-30T11:45:17.338Z,2.42
2022-10-30T11:47:44.777Z,2.50
2022-10-30T11:50:23.400Z,2.95
2022-10-30T11:52:54.560Z,2.30
2022-10-30T11:55:35.328Z,2.70
2022-10-30T11:58:02.847Z,2.22
2022-10-30T12:00:34.297Z,2.60
2022-10-30T12:03:01.552Z,2.92
2022-10-30T12:05:32.831Z,2.33
2022-10-30T12:08:20.737Z,2.17
2022-10-30T12:10:59.519Z,2.85
2022-10-30T12:13:27.055Z,3.63
2022-10-30T12:16:16.872Z,2.58
2022-10-30T12:18:54.427Z,2.63
2022-10-30T12:21:21.334Z,2.55
2022-10-30T12:24:14.662Z,2.30
2022-10-30T12:26:41.633Z,2.35
2022-10-30T12:29:15.789Z,2.33
2022-10-30T12:31:58.615Z,2.60
2022-10-30T12:34:43.544Z,3.10
2022-10-30T12:37:24.521Z,2.92
2022-10-30T12:40:10.275Z,2.80
2022-10-30T12:42:44.320Z,2.75
2022-10-30T12:45:16.247Z,2.75
2022-10-30T12:48:09.065Z,2.45
2022-10-30T12:50:52.447Z,2.65
2022-10-30T12:53:44.665Z,2.97
2022-10-30T12:56:18.553Z,2.80
2022-10-30T12:58:50.943Z,2.78
2022-10-30T13:01:27.691Z,2.40
2022-10-30T13:04:04.138Z,2.67
2022-10-30T13:06:35.429Z,2.85
2022-10-30T13:09:23.861Z,2.53
2022-10-30T13:12:16.891Z,2.72
2022-10-30T13:14:55.679Z,2.15
2022-10-30T13:17:22.450Z,2.45
2022-10-30T13:19:51.006Z,2.38
2022-10-30T13:22:34.382Z,2.22
2022-10-30T13:25:14.215Z,2.83
2022-10-30T13:27:51.104Z,2.55
2022-10-30T13:30:25.283Z,2.70
2022-10-30T13:33:01.073Z,2.92
2022-10-30T13:35:54.272Z,2.85
2022-10-30T13:38:42.910Z,3.10
2022-10-30T13:41:28.489Z,3.05
2022-10-30T13:44:07.174Z,3.78
2022-10-30T13:46:49.354Z,3.97
2022-10-30T13:49:42.289Z,2.72
2022-10-30T13:52:17.646Z,3.17
2022-10-30T13:54:46.579Z,3.05
2022-10-30T13:57:20.563Z,2.25
2022-10-30T14:00:16.429Z,3.08
2022-10-30T14:03:10.262Z,3.78
2022-10-30T14:05:45.352Z,3.63
2022-10-30T14:08:40.423Z,3.42
2022-10-30T14:11:11.271Z,3.13
2022-10-30T14:13:58.221Z,2.95
2022-10-30T14:16:31.020Z,3.10
2022-10-30T14:19:12.458Z,2.78
2022-10-30T14:21:48.086Z,3.60
2022-10-30T14:24:18.080Z,3.40
2022-10-30T14:26:52.835Z,3.30
2022-10-30T14:29:38.119Z,2.40
2022-10-30T14:32:14.115Z,3.13
2022-10-30T14:34:50.084Z,3.58
2022-10-30T14:37:23.000Z,3.22
2022-10-30T14:39:51.639Z,3.15
2022-10-30T14:42:40.939Z,3.30
2022-10-30T14:45:16.652Z,3.35
2022-10-30T14:48:07.430Z,3.67
2022-10-30T14:50:50.159Z,3.50
2022-10-30T14:53:22.330Z,2.97
2022-10-30T14:56:19.068Z,3.28
2022-10-30T14:59:14.982Z,3.22
2022-10-30T15:02:00.452Z,3.60
2022-10-30T15:04:54.181Z,3.70
2022-10-30T15:07:40.498Z,3.92
2022-10-30T15:10:29.504Z,3.15
2022-10-30T15:13:15.886Z,3.50
2022-10-30T15:15:44.159Z,3.85
2022-10-30T15:18:18.279Z,2.95
2022-10-30T15:20:51.486Z,3.60
2022-10-30T15:23:27.274Z,3.58
2022-10-30T15:25:56.162Z,3.33
2022-10-30T15:28:26.901Z,3.20
2022-10-30T15:31:17.074Z,4.17
2022-10-30T15:33:44.491Z,4.70
2022-10-30T15:36:29.079Z,4.20
2022-10-30T15:39:17.712Z,4.00
2022-10-30T15:41:46.230Z,3.53
2022-10-30T15:44:18.253Z,3.88
2022-10-30T15:46:47.219Z,3.60
2022-10-30T15:49:26.718Z,4.00
2022-10-30T15:51:53.616Z,3.90
2022-10-30T15:54:21.726Z,3.97
2022-10-30T15:57:21.494Z,4.45
2022-10-30T15:59:37.884Z,3.97
2022-10-30T16:02:20.614Z,3.80
2022-10-30T16:04:48.466Z,4.10
2022-10-30T16:07:24.070Z,4.40
2022-10-30T16:09:54.852Z,4.35
2022-10-30T16:12:25.863Z,6.47
2022-10-30T16:14:53.975Z,6.53
2022-10-30T16:17:21.537Z,6.85
2022-10-30T16:19:51.968Z,5.82
2022-10-30T16:22:37.873Z,6.25
2022-10-30T16:25:11.660Z,5.95
2022-10-30T16:27:45.895Z,6.13
2022-10-30T16:30:16.940Z,6.32
2022-10-30T16:32:52.452Z,5.35
2022-10-30T16:35:21.727Z,4.72
2022-10-30T16:37:50.550Z,5.15
2022-10-30T16:40:21.177Z,6.03
2022-10-30T16:42:59.702Z,4.80
2022-10-30T16:45:33.799Z,4.80
2022-10-30T16:48:13.705Z,4.70
2022-10-30T16:50:40.893Z,4.85
2022-10-30T16:53:18.428Z,4.90
2022-10-30T16:55:45.597Z,5.00
2022-10-30T16:58:17.213Z,4.18
2022-10-30T17:00:54.151Z,4.45
2022-10-30T17:03:25.128Z,5.32
2022-10-30T17:06:05.547Z,5.07
2022-10-30T17:08:43.229Z,5.32
2022-10-30T17:11:19.685Z,5.03
2022-10-30T17:13:52.655Z,5.65
2022-10-30T17:16:30.419Z,4.97
2022-10-30T17:19:00.507Z,5.72
2022-10-30T17:21:45.636Z,5.63
2022-10-30T17:24:21.544Z,4.97
2022-10-30T17:26:59.322Z,5.88
2022-10-30T17:29:38.243Z,5.28
2022-10-30T17:32:14.740Z,5.05
2022-10-30T17:34:41.493Z,4.78
2022-10-30T17:37:08.382Z,5.38
2022-10-30T17:39:36.381Z,5.45
2022-10-30T17:42:03.931Z,6.35
2022-10-30T17:44:34.275Z,4.72
2022-10-30T17:47:07.865Z,4.70
2022-10-30T17:49:34.878Z,6.65
2022-10-30T17:52:02.464Z,5.88
2022-10-30T17:54:29.339Z,6.63
2022-10-30T17:56:57.866Z,6.45
2022-10-30T17:59:24.662Z,6.57
2022-10-30T18:01:51.432Z,6.43
2022-10-30T18:04:21.084Z,6.65
2022-10-30T18:06:49.006Z,6.43
2022-10-30T18:09:16.022Z,5.82
2022-10-30T18:11:42.874Z,5.43
2022-10-30T18:14:11.567Z,6.00
2022-10-30T18:16:38.560Z,6.10
2022-10-30T18:19:10.459Z,5.80
2022-10-30T18:24:10.609Z,6.55
2022-10-30T18:26:40.537Z,5.35
2022-10-30T18:29:08.576Z,6.18
2022-10-30T18:31:35.783Z,5.75
2022-10-30T18:34:03.515Z,5.88
2022-10-30T18:36:30.975Z,6.10
2022-10-30T18:38:58.320Z,5.07
2022-10-30T18:41:33.253Z,5.90
2022-10-30T18:44:00.266Z,6.55
2022-10-30T18:46:31.679Z,5.78
2022-10-30T18:48:58.944Z,6.43
2022-10-30T18:51:28.191Z,6.53
2022-10-30T18:53:56.767Z,9.75
2022-10-30T18:56:26.747Z,8.05
2022-10-30T18:58:58.453Z,7.80
2022-10-30T19:01:30.292Z,8.63
2022-10-30T19:04:00.660Z,8.65
2022-10-30T19:06:27.713Z,8.55
2022-10-30T19:08:54.593Z,8.38
2022-10-30T19:11:24.827Z,8.68
2022-10-30T19:13:53.472Z,9.02
2022-10-30T19:16:25.318Z,9.70
2022-10-30T19:21:25.517Z,9.20
2022-10-30T19:23:53.929Z,8.10
2022-10-30T19:26:20.854Z,7.30
2022-10-30T19:28:47.647Z,8.88
2022-10-30T19:31:19.149Z,8.45
2022-10-30T19:33:51.268Z,8.93
2022-10-30T19:36:33.912Z,8.02
2022-10-30T19:39:08.547Z,8.07
2022-10-30T19:41:36.315Z,7.70
2022-10-30T19:44:03.280Z,6.80
2022-10-30T19:46:30.017Z,7.75
2022-10-30T19:48:58.684Z,7.68
2022-10-30T19:51:27.291Z,7.60
2022-10-30T19:53:54.260Z,7.53
2022-10-30T19:56:21.967Z,6.95
2022-10-30T19:58:49.391Z,7.40
2022-10-30T20:01:16.470Z,8.88
2022-10-30T20:03:43.556Z,7.10
2022-10-30T20:06:14.168Z,7.13
2022-10-30T20:08:40.974Z,7.70
2022-10-30T20:11:07.882Z,7.35
2022-10-30T20:13:34.977Z,7.05
2022-10-30T20:16:04.740Z,7.28
2022-10-30T20:18:33.923Z,8.00
2022-10-30T20:21:03.644Z,7.28
2022-10-30T20:23:30.677Z,7.85
2022-10-30T20:26:03.456Z,7.00
2022-10-30T20:28:38.336Z,6.97
2022-10-30T20:31:06.437Z,8.65
2022-10-30T20:33:34.220Z,7.68
2022-10-30T20:36:01.093Z,7.93
2022-10-30T20:38:35.673Z,8.48
2022-10-30T20:41:04.426Z,8.88
2022-10-30T20:43:35.348Z,7.53
2022-10-30T20:46:04.068Z,8.43
2022-10-30T20:48:31.078Z,7.43
2022-10-30T20:51:00.228Z,8.20
2022-10-30T20:53:27.888Z,8.05
2022-10-30T20:55:54.679Z,8.73
2022-10-30T20:58:21.801Z,7.93
2022-10-30T21:00:49.759Z,7.07
2022-10-30T21:03:16.906Z,9.00
2022-10-30T21:05:45.942Z,9.25
2022-10-30T21:08:16.094Z,8.38
2022-10-30T21:10:43.016Z,9.05
2022-10-30T21:13:11.183Z,8.02
2022-10-30T21:15:40.151Z,8.00
2022-10-30T21:18:08.391Z,6.97
2022-10-30T21:20:36.552Z,7.90
2022-10-30T21:23:03.980Z,8.77
2022-10-30T21:25:32.266Z,6.88
2022-10-30T21:27:59.849Z,7.45
2022-10-30T21:30:27.326Z,6.75
2022-10-30T21:32:54.189Z,6.63
2022-10-30T21:35:21.314Z,7.72
2022-10-30T21:37:48.185Z,7.88
2022-10-30T21:40:14.993Z,7.22
2022-10-30T21:42:41.853Z,7.75
2022-10-30T21:45:09.281Z,7.38
2022-10-30T21:47:36.083Z,7.55
2022-10-30T21:50:06.143Z,7.25
2022-10-30T21:52:33.885Z,7.38
2022-10-30T21:55:00.667Z,7.28
2022-10-30T21:57:29.096Z,7.22
2022-10-30T21:59:58.687Z,7.55
2022-10-30T22:02:31.265Z,8.05
2022-10-30T22:04:58.034Z,7.35
2022-10-30T22:07:24.847Z,7.38
2022-10-30T22:09:52.537Z,7.60
2022-10-30T22:12:19.325Z,6.93
2022-10-30T22:14:46.074Z,8.55
2022-10-30T22:17:12.917Z,7.65
2022-10-30T22:19:39.779Z,9.02
2022-10-30T22:22:06.910Z,8.55
2022-10-30T22:24:33.896Z,8.98
2022-10-30T22:27:00.619Z,8.05
2022-10-30T22:29:27.452Z,8.45
2022-10-30T22:31:54.269Z,8.60
2022-10-30T22:34:21.106Z,9.25
2022-10-30T22:36:48.308Z,8.82
2022-10-30T22:39:15.199Z,8.45
2022-10-30T22:41:42.161Z,7.72
2022-10-30T22:44:13.682Z,8.07
2022-10-30T22:46:41.083Z,7.70
2022-10-30T22:49:08.228Z,8.60
2022-10-30T22:51:37.532Z,8.77
2022-10-30T22:54:07.009Z,8.05
2022-10-30T22:56:35.857Z,7.90
2022-10-30T22:59:05.264Z,7.45
2022-10-30T23:01:34.419Z,9.02
2022-10-30T23:04:03.280Z,7.93
2022-10-30T23:06:31.411Z,7.28
2022-10-30T23:09:00.197Z,7.60
2022-10-30T23:11:28.014Z,7.68
2022-10-30T23:13:55.129Z,8.30
2022-10-30T23:16:24.431Z,8.07
2022-10-30T23:18:53.859Z,8.13
2022-10-30T23:21:22.612Z,8.07
2022-10-30T23:23:49.837Z,8.75
2022-10-30T23:26:19.244Z,9.95
2022-10-30T23:28:47.872Z,10.18
2022-10-30T23:31:32.293Z,9.20
2022-10-30T23:34:01.304Z,7.97
2022-10-30T23:36:28.442Z,8.43
2022-10-30T23:39:00.178Z,8.77
2022-10-30T23:41:29.660Z,9.68
2022-10-30T23:43:58.245Z,8.88
2022-10-30T23:46:25.337Z,8.95
2022-10-30T23:48:52.354Z,9.48
2022-10-30T23:51:19.770Z,9.68
2022-10-30T23:53:46.690Z,9.50
2022-10-30T23:56:14.103Z,8.63
2022-10-30T23:58:48.522Z,9.02
